Аэропорт: Остафьево. Москва

ICAO: UUMO

METAR:
2019/01/21 22:30
UUMO 212230Z 29003MPS 9999 SCT009 M16/M17 Q1012 R26/090060 NOSIG RMK QFE743/0991
METAR:
Информация по данной станции не доступна